Time;durP1;ratioP1;P1;durP2;ratioP2;P2;SDS_P1;SDS_P2;PMS_P1;PMS_P2;Temp;Humidity;BMP_temperature;BMP_pressure;BME280_temperature;BME280_humidity;BME280_pressure;Samples;Min_cycle;Max_cycle;Signal;HPM_P1;HPM_P2
2022/09/25 00:00:55;;;;;;;25.75;20.15;;;;;;;13.34;84.32;97909.19;7387750;19;20392;-70
2022/09/25 00:03:24;;;;;;;29.08;20.70;;;;;;;13.32;84.24;97911.19;7390243;19;20054;-69
2022/09/25 00:05:51;;;;;;;27.05;20.60;;;;;;;13.33;84.58;97910.19;7386124;19;20037;-73
2022/09/25 00:08:19;;;;;;;25.08;20.33;;;;;;;13.39;84.42;97912.09;7387300;19;20050;-71
2022/09/25 00:10:48;;;;;;;29.67;20.15;;;;;;;13.36;84.70;97907.97;7392047;19;20026;-73
2022/09/25 00:13:17;;;;;;;28.38;21.00;;;;;;;13.42;84.64;97911.72;7387850;19;20026;-73
2022/09/25 00:15:52;;;;;;;25.25;21.10;;;;;;;13.51;84.73;97910.63;7386513;19;20010;-73
2022/09/25 00:21:05;;;;;;;28.13;21.63;;;;;;;13.60;85.00;97906.03;7389865;19;20014;-72
2022/09/25 00:23:33;;;;;;;25.52;21.38;;;;;;;13.66;84.92;97905.28;7386707;19;20035;-73
2022/09/25 00:26:01;;;;;;;31.13;22.40;;;;;;;13.63;84.93;97902.16;7388284;19;20010;-71
2022/09/25 00:28:30;;;;;;;24.98;21.08;;;;;;;13.66;84.68;97904.44;7390195;19;20014;-73
2022/09/25 00:30:57;;;;;;;26.13;20.67;;;;;;;13.66;84.51;97899.94;7389659;19;20056;-73
2022/09/25 00:33:24;;;;;;;25.02;19.75;;;;;;;13.60;84.56;97898.88;7388684;19;20035;-73
2022/09/25 00:35:51;;;;;;;28.80;20.42;;;;;;;13.55;84.09;97890.63;7387979;19;20015;-72
2022/09/25 00:38:17;;;;;;;27.30;21.23;;;;;;;13.38;84.34;97890.03;7386218;19;20014;-72
2022/09/25 00:40:44;;;;;;;27.90;19.73;;;;;;;13.28;84.80;97891.31;7385692;19;20014;-72
2022/09/25 00:43:32;;;;;;;32.13;21.38;;;;;;;13.23;85.15;97893.69;7386184;19;20019;-73
2022/09/25 00:46:01;;;;;;;28.02;20.15;;;;;;;13.20;85.18;97891.41;7389316;19;20010;-72
2022/09/25 00:48:28;;;;;;;34.13;20.98;;;;;;;13.21;85.08;97890.38;7388354;19;20015;-73
2022/09/25 00:50:56;;;;;;;31.38;20.17;;;;;;;13.37;84.82;97892.84;7385450;19;20098;-71
2022/09/25 00:53:29;;;;;;;21.60;17.80;;;;;;;13.40;84.99;97873.88;7390697;19;20023;-72
2022/09/25 00:55:56;;;;;;;25.90;19.25;;;;;;;13.44;85.15;97872.53;7384360;19;20039;-72
2022/09/25 00:58:26;;;;;;;27.25;18.80;;;;;;;13.55;84.89;97868.56;7380082;19;20018;-72
2022/09/25 01:00:53;;;;;;;23.15;19.02;;;;;;;13.56;84.72;97870.19;7389786;19;20054;-72
2022/09/25 01:03:21;;;;;;;26.02;20.02;;;;;;;13.46;84.75;97859.88;7388424;19;20017;-73
2022/09/25 01:05:48;;;;;;;23.45;19.27;;;;;;;13.39;84.75;97861.63;7389258;19;20048;-73
2022/09/25 01:08:18;;;;;;;25.33;19.90;;;;;;;13.42;84.42;97863.91;7388654;19;20018;-72
2022/09/25 01:10:45;;;;;;;26.40;20.77;;;;;;;13.40;84.43;97855.28;7386792;19;20367;-69
2022/09/25 01:13:12;;;;;;;22.77;18.55;;;;;;;13.33;84.23;97846.44;7383751;19;20138;-71
2022/09/25 01:16:15;;;;;;;30.20;20.98;;;;;;;13.27;84.04;97866.59;7384998;19;20034;-73
2022/09/25 01:19:09;;;;;;;29.20;21.65;;;;;;;13.24;84.65;97861.59;7385580;19;20023;-72
2022/09/25 01:21:48;;;;;;;26.95;21.58;;;;;;;13.28;85.06;97864.75;7387953;19;20045;-71
2022/09/25 01:24:33;;;;;;;33.13;22.77;;;;;;;13.29;85.49;97855.78;7386578;19;20011;-73
2022/09/25 01:27:30;;;;;;;33.45;22.95;;;;;;;13.36;85.60;97864.66;7386656;19;20899;-73
2022/09/25 01:30:12;;;;;;;37.00;25.48;;;;;;;13.39;85.88;97864.28;7379704;19;20019;-72
2022/09/25 01:32:54;;;;;;;34.35;24.63;;;;;;;13.47;85.96;97853.53;7383840;19;20010;-70
2022/09/25 01:35:35;;;;;;;31.70;24.77;;;;;;;13.63;85.41;97855.16;7384383;19;20025;-73
2022/09/25 01:38:14;;;;;;;32.47;22.45;;;;;;;13.65;84.99;97852.31;7387493;19;20045;-71
2022/09/25 01:40:46;;;;;;;32.50;24.50;;;;;;;13.64;85.09;97858.63;7386736;19;20022;-73
2022/09/25 01:43:17;;;;;;;34.47;24.48;;;;;;;13.66;84.79;97861.94;7388777;19;20010;-73
2022/09/25 01:46:20;;;;;;;38.78;27.33;;;;;;;13.53;85.45;97859.94;7384634;19;20136;-72
2022/09/25 01:48:53;;;;;;;31.15;24.60;;;;;;;13.69;85.01;97859.72;7380195;19;20061;-70
2022/09/25 01:51:23;;;;;;;38.05;26.35;;;;;;;13.76;85.03;97865.91;7388194;19;20018;-73
2022/09/25 01:53:53;;;;;;;29.95;23.77;;;;;;;13.80;84.86;97866.38;7388777;19;20038;-72
2022/09/25 01:56:31;;;;;;;43.20;29.30;;;;;;;13.78;84.83;97863.09;7385259;19;20014;-72
2022/09/25 01:59:09;;;;;;;36.88;27.92;;;;;;;13.78;84.79;97865.75;7384911;19;20014;-72
2022/09/25 02:01:39;;;;;;;36.70;27.92;;;;;;;13.74;84.99;97869.78;7385382;19;20034;-71
2022/09/25 02:04:14;;;;;;;43.30;27.60;;;;;;;13.71;85.37;97862.19;7382460;19;20044;-70
2022/09/25 02:06:43;;;;;;;35.40;26.70;;;;;;;13.68;85.31;97862.56;7384890;19;20045;-73
2022/09/25 02:09:35;;;;;;;35.42;26.52;;;;;;;13.60;85.57;97864.31;7382654;19;20609;-71
2022/09/25 02:12:07;;;;;;;35.95;25.25;;;;;;;13.67;85.56;97872.38;7388092;19;20030;-72
2022/09/25 02:14:38;;;;;;;35.65;25.45;;;;;;;13.65;85.68;97863.75;7384183;19;20018;-73
2022/09/25 02:17:09;;;;;;;37.47;24.67;;;;;;;13.70;85.55;97868.53;7382642;19;20631;-71
2022/09/25 02:22:25;;;;;;;31.00;23.52;;;;;;;13.76;85.13;97863.25;7384029;19;20485;-73
2022/09/25 02:24:56;;;;;;;34.88;24.23;;;;;;;13.68;85.34;97860.72;7384374;19;20015;-72
2022/09/25 02:27:28;;;;;;;34.35;25.25;;;;;;;13.72;84.95;97853.22;7385179;19;20478;-73
2022/09/25 02:29:55;;;;;;;35.15;24.40;;;;;;;13.69;84.92;97859.72;7384532;19;20022;-73
2022/09/25 02:32:27;;;;;;;38.17;25.05;;;;;;;13.68;84.95;97859.91;7385967;19;20010;-73
2022/09/25 02:34:54;;;;;;;30.95;22.13;;;;;;;13.69;84.79;97856.22;7382336;19;20052;-73
2022/09/25 02:37:21;;;;;;;29.73;21.42;;;;;;;13.71;84.71;97854.22;7377057;19;20466;-73
2022/09/25 02:39:51;;;;;;;36.67;24.63;;;;;;;13.59;85.02;97854.72;7382148;19;20015;-73
2022/09/25 02:42:28;;;;;;;37.67;24.63;;;;;;;13.58;85.31;97865.50;7385956;19;20042;-73
2022/09/25 02:45:17;;;;;;;37.22;25.38;;;;;;;13.56;85.56;97859.56;7384139;19;20153;-72
2022/09/25 02:48:22;;;;;;;39.05;25.73;;;;;;;13.59;85.20;97857.38;7385577;19;20022;-73
2022/09/25 02:51:03;;;;;;;37.22;25.95;;;;;;;13.59;85.39;97849.41;7385395;19;20010;-72
2022/09/25 02:53:47;;;;;;;34.22;25.42;;;;;;;13.61;85.38;97858.00;7380788;19;20014;-73
2022/09/25 02:56:28;;;;;;;38.78;27.52;;;;;;;13.63;85.31;97857.81;7379425;19;20010;-72
2022/09/25 02:58:58;;;;;;;35.78;25.45;;;;;;;13.67;85.26;97858.28;7384238;19;20027;-73
2022/09/25 03:01:26;;;;;;;37.83;27.20;;;;;;;13.73;85.19;97857.50;7384373;19;20014;-72
2022/09/25 03:03:54;;;;;;;35.30;25.15;;;;;;;13.77;85.21;97853.44;7384406;19;20010;-73
2022/09/25 03:06:21;;;;;;;31.08;21.88;;;;;;;13.78;84.87;97853.28;7383385;19;20038;-73
2022/09/25 03:08:51;;;;;;;29.02;22.33;;;;;;;13.81;84.79;97849.41;7381750;19;20038;-73
2022/09/25 03:11:20;;;;;;;29.30;21.85;;;;;;;13.82;84.85;97843.91;7381382;19;20078;-72
2022/09/25 03:13:55;;;;;;;36.85;24.17;;;;;;;13.78;84.74;97841.81;7384536;19;20019;-72
2022/09/25 03:16:24;;;;;;;40.45;22.08;;;;;;;13.74;84.60;97843.19;7384729;19;20042;-74
2022/09/25 03:18:51;;;;;;;34.22;22.40;;;;;;;13.59;84.96;97853.91;7379959;19;20627;-72
2022/09/25 03:21:17;;;;;;;33.97;23.40;;;;;;;13.59;85.12;97854.72;7385341;19;20365;-72
2022/09/25 03:23:44;;;;;;;35.03;22.50;;;;;;;13.64;84.71;97851.50;7385961;19;20500;-69
2022/09/25 03:26:11;;;;;;;28.08;20.60;;;;;;;13.62;84.58;97853.50;7385424;19;20011;-72
2022/09/25 03:28:38;;;;;;;29.63;20.98;;;;;;;13.66;84.64;97853.94;7388192;19;20014;-72
2022/09/25 03:31:09;;;;;;;28.23;20.92;;;;;;;13.68;84.61;97854.59;7391401;19;20007;-73
2022/09/25 03:33:41;;;;;;;28.83;21.27;;;;;;;13.65;84.91;97852.31;7392832;19;20368;-72
2022/09/25 03:36:13;;;;;;;31.00;22.17;;;;;;;13.61;84.83;97858.00;7388265;19;20474;-73
2022/09/25 03:38:41;;;;;;;30.70;22.58;;;;;;;13.57;84.90;97851.41;7391562;19;20011;-73
2022/09/25 03:41:09;;;;;;;34.72;22.67;;;;;;;13.44;85.39;97855.75;7388795;19;20042;-73
2022/09/25 03:43:37;;;;;;;33.20;20.73;;;;;;;13.46;85.30;97857.22;7388143;19;20011;-72
2022/09/25 03:46:05;;;;;;;25.23;20.10;;;;;;;13.49;85.37;97859.50;7390551;19;20015;-73
2022/09/25 03:48:33;;;;;;;32.45;20.92;;;;;;;13.48;85.05;97857.00;7389949;19;20020;-73
2022/09/25 03:51:00;;;;;;;32.15;21.63;;;;;;;13.44;85.18;97861.88;7389919;19;20038;-72
2022/09/25 03:53:30;;;;;;;28.15;20.92;;;;;;;13.49;84.78;97858.69;7392832;19;20006;-72
2022/09/25 03:55:57;;;;;;;28.27;20.85;;;;;;;13.44;85.03;97866.38;7392285;19;20006;-72
2022/09/25 03:58:24;;;;;;;33.88;21.08;;;;;;;13.41;84.71;97856.94;7385861;19;20072;-69
2022/09/25 04:00:50;;;;;;;33.95;22.17;;;;;;;13.40;84.85;97855.28;7388324;19;20015;-70
2022/09/25 04:03:17;;;;;;;27.10;19.60;;;;;;;13.42;84.75;97850.63;7389461;19;20010;-73
2022/09/25 04:05:45;;;;;;;31.73;20.67;;;;;;;13.36;84.75;97857.50;7392879;19;20058;-72
2022/09/25 04:08:11;;;;;;;29.58;20.65;;;;;;;13.39;84.54;97848.34;7391685;19;20474;-73
2022/09/25 04:10:39;;;;;;;33.42;22.17;;;;;;;13.32;84.53;97847.44;7391175;19;20018;-72
2022/09/25 04:13:06;;;;;;;29.88;20.60;;;;;;;13.29;84.66;97850.47;7391615;19;20014;-73
2022/09/25 04:15:33;;;;;;;26.73;19.23;;;;;;;13.31;84.81;97845.78;7389212;19;21723;-71
2022/09/25 04:18:00;;;;;;;27.15;20.35;;;;;;;13.34;84.59;97851.53;7384596;19;20046;-70
2022/09/25 04:20:31;;;;;;;30.40;21.15;;;;;;;13.34;84.37;97848.06;7388456;19;20029;-72
2022/09/25 04:22:58;;;;;;;27.42;20.75;;;;;;;13.31;84.28;97840.47;7389023;19;20750;-72
2022/09/25 04:25:25;;;;;;;27.25;20.45;;;;;;;13.30;84.48;97833.53;7391518;19;20014;-73
2022/09/25 04:27:57;;;;;;;28.20;21.65;;;;;;;13.25;84.38;97852.66;7389462;19;20038;-72
2022/09/25 04:30:25;;;;;;;32.53;22.83;;;;;;;13.24;84.48;97856.28;7387446;19;20015;-73
2022/09/25 04:35:39;;;;;;;28.67;20.38;;;;;;;13.26;84.79;97849.00;7386102;19;20024;-72
2022/09/25 04:38:06;;;;;;;34.20;21.33;;;;;;;13.27;84.59;97845.34;7386134;19;20031;-72
2022/09/25 04:40:33;;;;;;;28.83;20.42;;;;;;;13.31;84.60;97848.44;7389526;19;20054;-72
2022/09/25 04:43:01;;;;;;;31.80;20.65;;;;;;;13.25;85.01;97852.66;7387223;19;20015;-73
2022/09/25 04:45:29;;;;;;;33.88;20.40;;;;;;;13.27;85.14;97849.81;7389252;19;20018;-72
2022/09/25 04:47:58;;;;;;;31.48;21.75;;;;;;;13.27;85.16;97855.13;7389975;19;20496;-73
2022/09/25 04:50:27;;;;;;;29.77;20.88;;;;;;;13.26;85.53;97861.44;7385128;19;20046;-72
2022/09/25 04:53:00;;;;;;;33.05;21.27;;;;;;;13.22;85.45;97860.13;7386279;19;20421;-72
2022/09/25 04:55:27;;;;;;;28.35;20.77;;;;;;;13.24;85.42;97858.94;7390437;19;20014;-71
2022/09/25 04:57:56;;;;;;;28.55;20.80;;;;;;;13.25;85.36;97863.25;7388984;19;20013;-72
2022/09/25 05:00:28;;;;;;;32.15;21.02;;;;;;;13.18;85.49;97863.16;7387459;19;20023;-73
2022/09/25 05:02:55;;;;;;;31.27;21.65;;;;;;;13.21;85.43;97847.88;7389644;19;20014;-73
2022/09/25 05:05:26;;;;;;;33.00;22.58;;;;;;;13.19;85.26;97858.69;7387313;19;20056;-71
2022/09/25 05:07:53;;;;;;;28.77;20.38;;;;;;;13.18;84.90;97841.91;7383585;19;20513;-72
2022/09/25 05:10:26;;;;;;;26.70;19.00;;;;;;;13.18;84.81;97844.56;7386244;19;20038;-73
2022/09/25 05:12:55;;;;;;;29.95;18.98;;;;;;;13.11;84.92;97846.34;7390402;19;20306;-73
2022/09/25 05:15:21;;;;;;;30.83;21.23;;;;;;;13.12;84.94;97847.16;7386846;19;20097;-73
2022/09/25 05:17:49;;;;;;;31.25;20.40;;;;;;;13.09;84.76;97851.00;7389864;19;20018;-73
2022/09/25 05:20:16;;;;;;;28.13;21.02;;;;;;;13.02;84.89;97847.44;7388314;19;20014;-73
2022/09/25 05:22:43;;;;;;;28.05;19.00;;;;;;;12.99;85.04;97850.47;7387710;19;20018;-73
2022/09/25 05:25:09;;;;;;;27.45;19.40;;;;;;;13.10;84.74;97852.66;7383605;19;20006;-73
2022/09/25 05:27:37;;;;;;;31.73;20.58;;;;;;;13.12;84.55;97860.44;7383705;19;21071;-70
2022/09/25 05:30:04;;;;;;;30.27;19.92;;;;;;;13.06;85.00;97854.03;7387540;19;20031;-73
2022/09/25 05:32:31;;;;;;;30.38;20.33;;;;;;;13.06;85.51;97862.00;7387012;19;20011;-72
2022/09/25 05:34:58;;;;;;;30.10;20.52;;;;;;;13.09;85.52;97861.63;7382711;19;20054;-72
2022/09/25 05:37:24;;;;;;;32.70;20.92;;;;;;;13.10;85.64;97862.44;7383690;19;20038;-73
2022/09/25 05:39:51;;;;;;;30.48;20.08;;;;;;;13.22;85.42;97862.78;7381403;19;20053;-72
2022/09/25 05:42:18;;;;;;;30.63;20.40;;;;;;;13.16;85.76;97859.06;7379764;19;20039;-73
2022/09/25 05:44:45;;;;;;;26.85;19.92;;;;;;;13.21;85.34;97867.28;7388737;19;20007;-71
2022/09/25 05:47:12;;;;;;;31.67;19.88;;;;;;;13.23;85.42;97862.63;7387283;19;20052;-72
2022/09/25 05:49:38;;;;;;;26.55;18.83;;;;;;;13.29;85.56;97861.09;7381097;19;20018;-70
2022/09/25 05:52:05;;;;;;;27.10;18.02;;;;;;;13.29;85.33;97867.22;7389531;19;20018;-71
2022/09/25 05:54:32;;;;;;;30.33;19.60;;;;;;;13.30;85.48;97855.59;7388390;19;20014;-71
2022/09/25 05:57:04;;;;;;;27.70;19.27;;;;;;;13.33;85.46;97859.72;7381797;19;20521;-72
2022/09/25 05:59:34;;;;;;;26.50;18.38;;;;;;;13.35;85.35;97855.88;7380302;19;20929;-71
2022/09/25 06:02:00;;;;;;;26.98;18.75;;;;;;;13.38;85.49;97854.66;7388049;19;20082;-71
2022/09/25 06:04:27;;;;;;;30.58;18.90;;;;;;;13.42;85.50;97863.91;7386778;19;20767;-72
2022/09/25 06:06:54;;;;;;;29.90;18.88;;;;;;;13.45;85.56;97860.06;7386723;19;20026;-71
2022/09/25 06:09:21;;;;;;;24.50;17.67;;;;;;;13.47;85.30;97856.19;7386762;19;20971;-71
2022/09/25 06:11:52;;;;;;;28.08;18.45;;;;;;;13.49;85.39;97856.03;7384605;19;20015;-71
2022/09/25 06:14:19;;;;;;;23.10;17.65;;;;;;;13.49;85.40;97864.00;7382175;19;20038;-71
2022/09/25 06:16:49;;;;;;;28.63;18.15;;;;;;;13.52;85.24;97856.47;7384607;19;20015;-72
2022/09/25 06:19:16;;;;;;;24.02;16.83;;;;;;;13.60;85.32;97866.16;7385074;19;20015;-72
2022/09/25 06:21:46;;;;;;;25.02;17.23;;;;;;;13.59;85.26;97861.88;7387054;19;20033;-72
2022/09/25 06:24:13;;;;;;;24.40;17.63;;;;;;;13.55;85.18;97860.56;7384091;19;20357;-72
2022/09/25 06:26:40;;;;;;;25.00;18.10;;;;;;;13.55;84.96;97858.75;7385295;19;20026;-72
2022/09/25 06:29:07;;;;;;;25.08;17.83;;;;;;;13.55;85.26;97857.91;7383681;19;20022;-71
2022/09/25 06:31:33;;;;;;;22.35;17.38;;;;;;;13.68;84.99;97860.72;7381067;19;20011;-72
2022/09/25 06:34:00;;;;;;;27.55;18.15;;;;;;;13.79;85.07;97859.41;7384168;19;20240;-72
2022/09/25 06:36:27;;;;;;;28.08;19.60;;;;;;;13.81;85.06;97857.38;7379155;19;20018;-72
2022/09/25 06:38:55;;;;;;;26.33;18.48;;;;;;;13.72;85.08;97861.19;7383171;19;20018;-72
2022/09/25 06:41:22;;;;;;;23.50;18.30;;;;;;;13.80;84.99;97861.88;7385125;19;20038;-72
2022/09/25 06:43:49;;;;;;;20.92;17.67;;;;;;;13.88;84.91;97862.78;7385771;19;20038;-72
2022/09/25 06:46:18;;;;;;;23.40;16.92;;;;;;;13.93;84.68;97866.53;7381170;19;20029;-72
2022/09/25 06:48:56;;;;;;;19.13;15.38;;;;;;;13.97;84.48;97870.44;7378020;19;20018;-72
2022/09/25 06:51:24;;;;;;;22.52;15.82;;;;;;;14.00;84.46;97862.06;7383306;19;20018;-72
2022/09/25 06:53:52;;;;;;;24.83;16.63;;;;;;;14.04;84.32;97868.66;7386166;19;20018;-72
2022/09/25 06:56:19;;;;;;;22.33;16.98;;;;;;;14.07;84.23;97866.66;7383630;19;20039;-72
2022/09/25 06:58:45;;;;;;;20.20;16.58;;;;;;;14.10;83.84;97871.59;7384345;19;20042;-72
2022/09/25 07:01:13;;;;;;;22.25;15.95;;;;;;;14.09;83.82;97865.44;7387264;19;20011;-72
2022/09/25 07:03:47;;;;;;;24.27;15.40;;;;;;;14.15;83.82;97864.66;7381970;19;20074;-72
2022/09/25 07:06:16;;;;;;;23.88;16.77;;;;;;;14.21;83.70;97871.06;7379683;19;20031;-73
2022/09/25 07:08:43;;;;;;;21.25;15.75;;;;;;;14.30;83.59;97866.41;7386191;19;20011;-72
2022/09/25 07:11:18;;;;;;;23.30;17.52;;;;;;;14.32;83.45;97870.53;7388160;19;20431;-72
2022/09/25 07:13:45;;;;;;;20.77;16.83;;;;;;;14.35;83.26;97869.31;7386170;19;20018;-72
2022/09/25 07:16:14;;;;;;;22.77;16.42;;;;;;;14.37;83.07;97868.13;7387095;19;20007;-72
2022/09/25 07:18:42;;;;;;;25.30;16.98;;;;;;;14.24;82.70;97879.50;7386628;19;20018;-73
2022/09/25 07:21:14;;;;;;;21.08;16.85;;;;;;;14.28;82.72;97886.06;7383133;19;20013;-72
2022/09/25 07:23:41;;;;;;;21.65;16.17;;;;;;;14.30;82.60;97877.06;7383910;19;20044;-72
2022/09/25 07:26:10;;;;;;;24.85;17.50;;;;;;;14.28;82.50;97880.75;7388502;19;20023;-72
2022/09/25 07:28:40;;;;;;;20.50;15.90;;;;;;;14.32;82.23;97878.53;7383300;19;20022;-72
2022/09/25 07:31:13;;;;;;;21.73;16.00;;;;;;;14.43;81.96;97883.34;7387318;19;20010;-72
2022/09/25 07:33:41;;;;;;;22.48;16.08;;;;;;;14.53;81.93;97879.53;7386550;19;20063;-73
2022/09/25 07:36:08;;;;;;;20.95;15.30;;;;;;;14.67;81.74;97876.81;7381488;19;20719;-72
2022/09/25 07:38:35;;;;;;;21.27;15.75;;;;;;;14.61;81.45;97884.72;7379171;19;20025;-72
2022/09/25 07:41:07;;;;;;;20.90;15.60;;;;;;;14.72;81.62;97884.22;7386583;19;20029;-72
2022/09/25 07:43:33;;;;;;;20.17;14.93;;;;;;;14.83;81.22;97877.53;7384952;19;20039;-72
2022/09/25 07:46:00;;;;;;;18.00;14.68;;;;;;;15.01;80.86;97877.00;7383747;19;20506;-72
2022/09/25 07:48:29;;;;;;;20.05;14.95;;;;;;;15.03;80.55;97880.28;7384936;19;20017;-72
2022/09/25 07:51:03;;;;;;;18.52;14.57;;;;;;;15.12;80.20;97871.94;7385163;19;20014;-72
2022/09/25 07:53:30;;;;;;;18.88;14.85;;;;;;;15.13;80.08;97878.09;7378588;19;20702;-72
2022/09/25 07:55:58;;;;;;;19.00;15.10;;;;;;;15.15;80.26;97882.22;7380845;19;20014;-72
2022/09/25 07:58:31;;;;;;;18.55;14.32;;;;;;;15.25;79.52;97883.72;7382999;19;20021;-72
2022/09/25 08:00:59;;;;;;;17.10;13.30;;;;;;;15.13;79.25;97888.75;7383846;19;20042;-72
2022/09/25 08:03:26;;;;;;;20.48;14.93;;;;;;;15.38;79.33;97886.44;7383864;19;20017;-71
2022/09/25 08:06:01;;;;;;;17.23;14.55;;;;;;;15.37;78.88;97885.59;7383170;19;20023;-72
2022/09/25 08:08:28;;;;;;;18.13;14.23;;;;;;;15.47;78.29;97889.75;7379984;19;20025;-72
2022/09/25 08:11:05;;;;;;;17.35;14.45;;;;;;;15.57;78.25;97887.53;7380208;19;20074;-72
2022/09/25 08:13:33;;;;;;;16.30;13.63;;;;;;;15.46;78.46;97888.94;7387021;19;20013;-71
2022/09/25 08:16:04;;;;;;;17.80;14.48;;;;;;;15.36;78.47;97891.13;7390301;19;20102;-71
2022/09/25 08:18:32;;;;;;;16.83;14.52;;;;;;;15.50;77.99;97895.50;7390541;19;20509;-72
2022/09/25 08:21:02;;;;;;;18.15;14.57;;;;;;;15.67;77.69;97889.84;7388960;19;20014;-70
2022/09/25 08:23:29;;;;;;;16.08;14.25;;;;;;;15.71;77.27;97886.56;7391802;19;20034;-73
2022/09/25 08:25:56;;;;;;;16.63;14.05;;;;;;;15.49;77.33;97893.03;7390365;19;20014;-71
2022/09/25 08:28:23;;;;;;;16.58;13.20;;;;;;;15.29;78.10;97892.94;7385835;19;20043;-73
2022/09/25 08:30:50;;;;;;;16.95;13.98;;;;;;;15.30;78.18;97889.28;7390508;19;20019;-73
2022/09/25 08:33:17;;;;;;;17.83;14.40;;;;;;;15.26;78.52;97891.50;7388297;19;20028;-71
2022/09/25 08:35:56;;;;;;;19.33;14.40;;;;;;;15.29;77.88;97887.59;7387695;19;20039;-73
2022/09/25 08:38:23;;;;;;;20.27;15.95;;;;;;;15.31;78.30;97886.38;7385696;19;20032;-72
2022/09/25 08:40:55;;;;;;;18.67;15.05;;;;;;;15.52;78.55;97884.63;7391156;19;20014;-73
2022/09/25 08:43:23;;;;;;;18.52;14.30;;;;;;;15.78;77.94;97876.75;7380962;19;20022;-72
2022/09/25 08:49:01;;;;;;;15.63;13.70;;;;;;;16.42;76.10;97880.75;7389386;19;20022;-72
2022/09/25 08:51:29;;;;;;;16.48;12.50;;;;;;;16.63;74.48;97881.56;7388911;19;20018;-72
2022/09/25 08:53:58;;;;;;;17.52;14.20;;;;;;;16.55;73.09;97877.25;7391567;19;20018;-73
2022/09/25 08:56:26;;;;;;;14.45;12.63;;;;;;;16.71;73.20;97868.00;7387641;19;20010;-73
2022/09/25 08:59:22;;;;;;;14.98;12.43;;;;;;;16.87;73.37;97872.13;7386929;19;20025;-71
2022/09/25 09:01:53;;;;;;;15.10;12.68;;;;;;;16.95;73.42;97869.22;7382464;19;20030;-73
2022/09/25 09:04:50;;;;;;;13.90;11.88;;;;;;;16.98;74.13;97859.97;7387583;19;20011;-72
2022/09/25 09:07:22;;;;;;;14.98;12.18;;;;;;;17.11;72.76;97865.28;7387157;19;20022;-72
2022/09/25 09:10:02;;;;;;;13.30;11.45;;;;;;;17.28;71.88;97858.44;7387845;19;20010;-70
2022/09/25 09:12:44;;;;;;;16.90;12.82;;;;;;;17.35;71.72;97858.41;7389201;19;20015;-73
2022/09/25 09:15:35;;;;;;;13.40;11.25;;;;;;;17.30;71.82;97867.09;7389360;19;20011;-73
2022/09/25 09:18:14;;;;;;;13.18;11.77;;;;;;;17.14;71.41;97867.56;7382169;19;20020;-73
2022/09/25 09:20:50;;;;;;;13.20;11.07;;;;;;;16.96;72.43;97867.41;7388136;19;20029;-73
2022/09/25 09:23:19;;;;;;;15.10;12.30;;;;;;;16.63;72.38;97874.38;7387013;19;20375;-71
2022/09/25 09:25:49;;;;;;;13.07;11.45;;;;;;;16.02;73.44;97869.22;7389591;19;20014;-72
2022/09/25 09:28:23;;;;;;;14.73;11.10;;;;;;;15.94;73.33;97869.41;7386357;19;20018;-73
2022/09/25 09:31:09;;;;;;;16.92;11.20;;;;;;;15.57;75.95;97863.53;7388480;19;20035;-73
2022/09/25 09:33:57;;;;;;;14.60;12.18;;;;;;;15.53;75.96;97857.78;7385404;19;20023;-72
2022/09/25 09:36:42;;;;;;;14.75;12.13;;;;;;;15.26;77.01;97867.50;7386380;19;20039;-71
2022/09/25 09:39:21;;;;;;;14.70;12.55;;;;;;;15.01;77.18;97861.00;7387120;19;20014;-72
2022/09/25 09:41:53;;;;;;;14.90;12.77;;;;;;;15.20;77.73;97864.81;7389490;19;20018;-72
2022/09/25 09:44:50;;;;;;;17.33;14.00;;;;;;;15.46;78.14;97862.28;7386192;19;20022;-70
2022/09/25 09:47:49;;;;;;;15.30;12.73;;;;;;;16.21;76.80;97854.25;7385371;19;20019;-72
2022/09/25 09:50:23;;;;;;;18.02;12.43;;;;;;;16.45;73.33;97858.16;7380880;19;20039;-73
2022/09/25 09:52:57;;;;;;;13.95;11.93;;;;;;;16.66;72.19;97863.28;7384113;19;20592;-73
2022/09/25 09:55:29;;;;;;;15.18;12.52;;;;;;;16.52;73.32;97861.66;7387530;19;20050;-73
2022/09/25 09:58:01;;;;;;;13.40;10.98;;;;;;;16.29;74.12;97864.72;7381137;19;20011;-72
2022/09/25 10:00:28;;;;;;;12.77;11.45;;;;;;;16.32;74.14;97866.16;7381574;19;20022;-73
2022/09/25 10:03:02;;;;;;;11.48;10.23;;;;;;;16.23;74.48;97861.03;7387236;19;20011;-73
2022/09/25 10:05:38;;;;;;;13.73;11.85;;;;;;;15.78;75.11;97865.28;7386119;19;20599;-72
2022/09/25 10:08:05;;;;;;;13.75;12.15;;;;;;;15.72;75.19;97861.56;7382347;19;20022;-72
2022/09/25 10:10:37;;;;;;;15.48;11.90;;;;;;;15.59;76.86;97859.66;7387071;19;20412;-71
2022/09/25 10:13:09;;;;;;;15.13;12.50;;;;;;;15.53;76.29;97863.13;7386503;19;20014;-71
2022/09/25 10:15:53;;;;;;;;;;;;;;;15.70;74.20;97858.28;7386309;19;20047;-72
2022/09/25 10:18:21;;;;;;;18.35;13.10;;;;;;;15.54;75.02;97856.75;7384624;19;19926;-72
2022/09/25 10:20:53;;;;;;;21.52;14.38;;;;;;;15.66;74.82;97856.16;7385078;19;20021;-72
2022/09/25 10:23:34;;;;;;;20.52;14.88;;;;;;;16.05;74.86;97846.66;7385456;19;20046;-72
2022/09/25 10:26:01;;;;;;;17.67;14.67;;;;;;;16.70;72.84;97847.66;7384451;19;20022;-72
2022/09/25 10:28:31;;;;;;;18.02;13.93;;;;;;;16.87;71.48;97848.06;7386701;19;20042;-72
2022/09/25 10:30:58;;;;;;;18.48;13.05;;;;;;;17.34;70.12;97848.75;7390080;19;20039;-72
2022/09/25 10:33:29;;;;;;;20.55;14.50;;;;;;;17.15;68.71;97850.47;7387465;19;20018;-72
2022/09/25 10:35:57;;;;;;;18.35;13.50;;;;;;;16.93;69.54;97849.94;7385759;19;20042;-72
2022/09/25 10:38:31;;;;;;;16.75;13.93;;;;;;;16.68;70.27;97853.22;7384630;19;20010;-72
2022/09/25 10:41:12;;;;;;;20.77;14.10;;;;;;;16.20;72.14;97850.75;7384703;19;20040;-72
2022/09/25 10:43:58;;;;;;;17.63;14.40;;;;;;;16.18;74.21;97850.13;7382817;19;20019;-72
2022/09/25 10:52:14;;;;;;;20.55;13.90;;;;;;;17.38;68.71;97854.50;7383275;19;20048;-73
2022/09/25 10:54:41;;;;;;;17.00;14.63;;;;;;;17.22;67.56;97856.63;7388471;19;20010;-72
2022/09/25 10:57:24;;;;;;;18.40;13.63;;;;;;;17.07;68.17;97856.88;7379718;19;20023;-72
2022/09/25 10:59:51;;;;;;;17.00;13.93;;;;;;;16.55;69.18;97855.06;7379027;19;20014;-72
2022/09/25 11:02:33;;;;;;;18.60;14.55;;;;;;;16.23;73.03;97858.34;7383562;19;20027;-72
2022/09/25 11:05:00;;;;;;;17.98;14.23;;;;;;;16.18;73.54;97855.47;7382702;19;20025;-72
2022/09/25 11:07:27;;;;;;;19.80;15.50;;;;;;;15.93;75.06;97857.06;7381535;19;20025;-71
2022/09/25 11:09:54;;;;;;;20.23;15.48;;;;;;;15.76;75.65;97861.97;7383243;19;20054;-72
2022/09/25 11:12:28;;;;;;;17.70;15.48;;;;;;;15.58;75.69;97859.84;7383382;19;20038;-79
2022/09/25 11:15:07;;;;;;;19.10;15.90;;;;;;;15.42;74.26;97857.53;7381404;19;20023;-76
2022/09/25 11:17:42;;;;;;;21.75;16.60;;;;;;;15.29;76.06;97869.78;7382215;19;20058;-74
2022/09/25 11:20:15;;;;;;;23.27;16.98;;;;;;;15.23;75.95;97867.91;7381665;19;20014;-75
2022/09/25 11:22:47;;;;;;;23.10;16.27;;;;;;;15.22;75.85;97870.75;7386394;19;20011;-75
2022/09/25 11:25:15;;;;;;;20.42;16.70;;;;;;;15.29;74.01;97863.63;7384394;19;20041;-76
2022/09/25 11:27:49;;;;;;;23.70;17.67;;;;;;;15.23;74.84;97872.41;7382260;19;20042;-76
2022/09/25 11:30:17;;;;;;;22.77;16.10;;;;;;;15.33;74.77;97868.38;7381269;19;20026;-75
2022/09/25 11:33:11;;;;;;;20.95;16.67;;;;;;;15.54;72.72;97864.75;7381005;19;20764;-75
2022/09/25 11:35:48;;;;;;;23.65;16.52;;;;;;;15.84;74.28;97863.63;7387157;19;20031;-76
2022/09/25 11:41:48;;;;;;;20.00;15.32;;;;;;;16.15;70.89;97861.22;7383181;19;20007;-75
2022/09/25 11:44:20;;;;;;;29.75;16.83;;;;;;;16.16;70.66;97860.19;7385644;19;20023;-75
2022/09/25 11:47:00;;;;;;;19.38;15.55;;;;;;;16.45;70.36;97861.63;7379365;19;20018;-75
2022/09/25 11:49:36;;;;;;;21.55;15.75;;;;;;;16.53;71.92;97867.81;7385238;19;20007;-75
2022/09/25 11:52:19;;;;;;;18.75;15.48;;;;;;;16.63;70.42;97861.00;7386366;19;20559;-75
2022/09/25 11:54:50;;;;;;;26.50;17.20;;;;;;;16.66;70.71;97855.25;7387768;19;20006;-75
2022/09/25 11:57:38;;;;;;;22.90;16.10;;;;;;;16.76;68.43;97854.03;7388160;19;20022;-75